Terminal Aerodrome Forecast
Issued by NWS

Home | Current Version | Previous Version | Text Only | Print | Product List | Glossary On
Versions: 1 2 3 4 5 6 7 8 9 10 11 12 13
000
FTUS44 KTSA 212322
TAFRVS
TAF
KRVS 212322Z 2200/2224 18016G21KT P6SM OVC060
     FM220200 VRB14G21KT 3SM TSRA OVC040CB
      TEMPO 2202/2204 VRB25G45KT 1SM +TSRA BKN015CB
     FM220400 32013KT 5SM -TSRA BKN025CB=

USA.gov is the U.S. government's official web portal to all federal, state and local government web resources and services.